createdAt,value
2023-03-30T00:01:21.298Z,8.10
2023-03-30T00:03:50.620Z,8.12
2023-03-30T00:06:23.149Z,8.13
2023-03-30T00:08:57.519Z,8.11
2023-03-30T00:11:27.075Z,8.07
2023-03-30T00:13:57.202Z,8.10
2023-03-30T00:16:25.837Z,8.14
2023-03-30T00:18:54.521Z,8.17
2023-03-30T00:21:23.196Z,8.15
2023-03-30T00:23:52.576Z,8.17
2023-03-30T00:26:21.605Z,8.09
2023-03-30T00:28:50.095Z,8.17
2023-03-30T00:31:20.630Z,8.20
2023-03-30T00:33:49.262Z,8.21
2023-03-30T00:36:18.223Z,8.20
2023-03-30T00:38:48.557Z,8.19
2023-03-30T00:41:18.035Z,8.13
2023-03-30T00:44:01.164Z,8.15
2023-03-30T00:46:32.468Z,8.15
2023-03-30T00:49:04.369Z,8.17
2023-03-30T00:51:36.480Z,8.15
2023-03-30T00:54:12.503Z,8.06
2023-03-30T00:56:41.422Z,8.16
2023-03-30T00:59:10.696Z,8.12
2023-03-30T01:01:41.976Z,8.13
2023-03-30T01:04:11.520Z,8.07
2023-03-30T01:06:43.746Z,8.12
2023-03-30T01:09:12.655Z,8.10
2023-03-30T01:11:41.524Z,8.12
2023-03-30T01:14:12.728Z,8.15
2023-03-30T01:16:49.494Z,8.17
2023-03-30T01:19:48.430Z,8.19
2023-03-30T01:23:03.982Z,8.18
2023-03-30T01:25:53.216Z,8.20
2023-03-30T01:28:32.445Z,8.21
2023-03-30T01:31:33.901Z,8.18
2023-03-30T01:34:29.856Z,8.21
2023-03-30T01:37:27.789Z,8.10
2023-03-30T01:40:02.523Z,8.22
2023-03-30T01:42:38.828Z,8.21
2023-03-30T01:45:14.684Z,8.20
2023-03-30T01:47:54.076Z,8.17
2023-03-30T01:50:27.184Z,8.15
2023-03-30T01:53:00.228Z,8.16
2023-03-30T01:55:36.709Z,8.15
2023-03-30T01:58:11.994Z,8.19
2023-03-30T02:00:45.162Z,8.17
2023-03-30T02:03:17.559Z,8.12
2023-03-30T02:05:48.801Z,8.10
2023-03-30T02:08:22.703Z,8.13
2023-03-30T02:10:55.103Z,8.16
2023-03-30T02:13:26.845Z,8.06
2023-03-30T02:16:01.180Z,8.10
2023-03-30T02:18:29.915Z,8.12
2023-03-30T02:20:59.557Z,8.04
2023-03-30T02:23:33.989Z,8.10
2023-03-30T02:26:05.002Z,8.07
2023-03-30T02:28:34.457Z,8.15
2023-03-30T02:31:03.870Z,8.18
2023-03-30T02:33:49.742Z,8.23
2023-03-30T02:36:38.860Z,8.27
2023-03-30T02:39:26.621Z,8.22
2023-03-30T02:42:13.089Z,8.08
2023-03-30T02:44:49.307Z,8.19
2023-03-30T02:47:25.486Z,8.21
2023-03-30T02:49:59.013Z,8.11
2023-03-30T02:52:50.039Z,8.15
2023-03-30T02:55:23.180Z,8.18
2023-03-30T02:58:07.641Z,8.24
2023-03-30T03:00:43.543Z,8.20
2023-03-30T03:03:19.068Z,8.23
2023-03-30T03:05:48.922Z,8.24
2023-03-30T03:08:19.927Z,8.20
2023-03-30T03:10:48.402Z,8.21
2023-03-30T03:13:20.996Z,8.23
2023-03-30T03:15:49.907Z,8.17
2023-03-30T03:18:18.894Z,8.22
2023-03-30T03:20:47.374Z,8.24
2023-03-30T03:23:16.215Z,8.20
2023-03-30T03:25:44.859Z,8.19
2023-03-30T03:28:13.447Z,8.22
2023-03-30T03:30:43.758Z,8.25
2023-03-30T03:33:12.472Z,8.20
2023-03-30T03:35:41.004Z,8.25
2023-03-30T03:38:09.681Z,8.25
2023-03-30T03:40:38.124Z,8.28
2023-03-30T03:43:06.932Z,8.28
2023-03-30T03:45:35.660Z,8.27
2023-03-30T03:48:05.679Z,8.36
2023-03-30T03:50:34.164Z,8.36
2023-03-30T03:53:02.543Z,8.39
2023-03-30T03:55:34.975Z,8.40
2023-03-30T03:58:03.611Z,8.39
2023-03-30T04:00:32.707Z,8.38
2023-03-30T04:03:01.478Z,8.40
2023-03-30T04:05:31.520Z,8.38
2023-03-30T04:07:59.978Z,8.38
2023-03-30T04:10:28.454Z,8.41
2023-03-30T04:12:57.652Z,8.43
2023-03-30T04:15:26.565Z,8.43
2023-03-30T04:17:58.500Z,8.41
2023-03-30T04:20:28.283Z,8.42
2023-03-30T04:23:01.979Z,8.45
2023-03-30T04:25:31.377Z,8.44
2023-03-30T04:27:59.954Z,8.37
2023-03-30T04:30:30.716Z,8.35
2023-03-30T04:33:04.807Z,8.29
2023-03-30T04:35:34.996Z,8.31
2023-03-30T04:38:04.921Z,8.31
2023-03-30T04:40:34.182Z,8.26
2023-03-30T04:43:04.121Z,8.25
2023-03-30T04:45:32.797Z,8.22
2023-03-30T04:48:01.365Z,8.24
2023-03-30T04:50:29.967Z,8.17
2023-03-30T04:52:58.514Z,8.13
2023-03-30T04:55:28.670Z,8.10
2023-03-30T04:57:57.034Z,8.09
2023-03-30T05:00:25.709Z,8.12
2023-03-30T05:02:54.233Z,8.04
2023-03-30T05:05:22.787Z,8.13
2023-03-30T05:07:52.191Z,8.17
2023-03-30T05:10:20.798Z,8.19
2023-03-30T05:12:50.635Z,8.13
2023-03-30T05:15:19.238Z,8.11
2023-03-30T05:17:47.714Z,8.17
2023-03-30T05:20:16.780Z,8.22
2023-03-30T05:22:47.144Z,8.13
2023-03-30T05:25:15.747Z,8.16
2023-03-30T05:27:44.594Z,8.08
2023-03-30T05:30:15.348Z,8.12
2023-03-30T05:32:43.993Z,8.11
2023-03-30T05:35:13.379Z,8.15
2023-03-30T05:37:41.955Z,8.14
2023-03-30T05:40:12.158Z,8.08
2023-03-30T05:42:40.782Z,8.25
2023-03-30T05:45:11.386Z,8.32
2023-03-30T05:47:41.395Z,8.28
2023-03-30T05:50:11.687Z,8.32
2023-03-30T05:52:40.320Z,8.36
2023-03-30T05:55:09.388Z,8.39
2023-03-30T05:57:37.889Z,8.46
2023-03-30T06:00:10.330Z,8.53
2023-03-30T06:02:38.880Z,8.58
2023-03-30T06:05:10.067Z,8.64
2023-03-30T06:07:39.010Z,8.73
2023-03-30T06:10:09.016Z,8.79
2023-03-30T06:12:39.612Z,8.80
2023-03-30T06:15:09.415Z,8.88
2023-03-30T06:17:38.297Z,8.91
2023-03-30T06:20:12.846Z,8.92
2023-03-30T06:22:43.031Z,8.81
2023-03-30T06:25:13.771Z,8.99
2023-03-30T06:27:44.701Z,9.03
2023-03-30T06:30:15.544Z,9.06
2023-03-30T06:32:44.309Z,9.12
2023-03-30T06:35:16.055Z,9.22
2023-03-30T06:37:45.169Z,9.17
2023-03-30T06:40:14.823Z,9.26
2023-03-30T06:42:44.985Z,9.37
2023-03-30T06:45:13.799Z,9.40
2023-03-30T06:47:42.786Z,9.46
2023-03-30T06:50:12.192Z,9.56
2023-03-30T06:52:42.208Z,9.59
2023-03-30T06:55:10.909Z,9.92
2023-03-30T06:57:39.530Z,9.94
2023-03-30T07:00:13.943Z,9.98
2023-03-30T07:02:43.039Z,10.08
2023-03-30T07:05:13.330Z,10.20
2023-03-30T07:07:43.558Z,10.26
2023-03-30T07:10:12.997Z,10.20
2023-03-30T07:12:43.000Z,10.18
2023-03-30T07:15:14.549Z,10.15
2023-03-30T07:17:43.512Z,10.19
2023-03-30T07:20:15.118Z,10.28
2023-03-30T07:22:45.140Z,10.36
2023-03-30T07:25:13.817Z,10.50
2023-03-30T07:27:42.415Z,10.50
2023-03-30T07:30:21.345Z,10.55
2023-03-30T07:32:52.343Z,10.62
2023-03-30T07:35:20.917Z,10.72
2023-03-30T07:37:51.308Z,10.76
2023-03-30T07:40:20.342Z,10.81
2023-03-30T07:42:50.841Z,10.84
2023-03-30T07:45:19.530Z,10.87
2023-03-30T07:47:48.072Z,10.96
2023-03-30T07:50:16.907Z,11.03
2023-03-30T07:52:45.587Z,11.14
2023-03-30T07:55:15.503Z,11.34
2023-03-30T07:57:44.629Z,11.42
2023-03-30T08:00:14.804Z,11.58
2023-03-30T08:02:45.010Z,11.62
2023-03-30T08:05:13.834Z,11.78
2023-03-30T08:07:42.385Z,11.73
2023-03-30T08:10:11.788Z,12.02
2023-03-30T08:12:41.729Z,12.01
2023-03-30T08:15:11.589Z,12.14
2023-03-30T08:17:40.154Z,12.07
2023-03-30T08:20:11.773Z,12.09
2023-03-30T08:22:40.636Z,12.14
2023-03-30T08:25:10.170Z,12.27
2023-03-30T08:27:38.753Z,12.29
2023-03-30T08:30:10.853Z,12.27
2023-03-30T08:32:39.382Z,12.41
2023-03-30T08:35:09.094Z,12.43
2023-03-30T08:37:37.576Z,12.38
2023-03-30T08:40:10.427Z,12.39
2023-03-30T08:43:05.600Z,12.44
2023-03-30T08:45:42.517Z,12.46
2023-03-30T08:48:18.397Z,12.52
2023-03-30T08:50:55.364Z,12.58
2023-03-30T08:53:25.081Z,12.61
2023-03-30T08:55:59.150Z,12.65
2023-03-30T08:58:40.489Z,12.69
2023-03-30T09:01:20.560Z,12.86
2023-03-30T09:04:02.157Z,13.11
2023-03-30T09:06:43.354Z,13.30
2023-03-30T09:09:15.823Z,13.41
2023-03-30T09:11:47.845Z,13.52
2023-03-30T09:14:23.564Z,13.68
2023-03-30T09:17:05.534Z,13.83
2023-03-30T09:19:39.623Z,13.91
2023-03-30T09:22:09.276Z,13.98
2023-03-30T09:24:38.525Z,14.08
2023-03-30T09:27:16.210Z,14.17
2023-03-30T09:29:52.192Z,14.28
2023-03-30T09:32:32.702Z,14.39
2023-03-30T09:35:07.904Z,14.49
2023-03-30T09:37:37.959Z,14.70
2023-03-30T09:40:25.924Z,14.76
2023-03-30T09:43:02.296Z,14.89
2023-03-30T09:45:34.879Z,14.98
2023-03-30T09:48:09.989Z,15.10
2023-03-30T09:50:41.392Z,15.35
2023-03-30T09:53:21.628Z,15.42
2023-03-30T09:56:01.779Z,15.54
2023-03-30T09:58:31.886Z,15.57
2023-03-30T10:01:08.679Z,15.74
2023-03-30T10:03:38.901Z,15.81
2023-03-30T10:06:09.792Z,15.69
2023-03-30T10:08:44.318Z,15.69
2023-03-30T10:11:13.456Z,15.69
2023-03-30T10:13:44.898Z,15.64
2023-03-30T10:16:29.050Z,15.55
2023-03-30T10:19:02.983Z,15.55
2023-03-30T10:21:36.223Z,15.49
2023-03-30T10:24:09.943Z,15.50
2023-03-30T10:26:44.701Z,15.51
2023-03-30T10:29:15.809Z,15.53
2023-03-30T10:31:48.542Z,15.53
2023-03-30T10:34:21.426Z,15.53
2023-03-30T10:36:54.842Z,15.43
2023-03-30T10:39:27.269Z,15.47
2023-03-30T10:41:59.281Z,15.48
2023-03-30T10:44:33.225Z,15.45
2023-03-30T10:47:17.625Z,15.45
2023-03-30T10:49:57.530Z,15.45
2023-03-30T10:52:35.729Z,15.40
2023-03-30T10:55:16.994Z,15.45
2023-03-30T10:57:54.497Z,15.52
2023-03-30T11:00:50.955Z,15.55
2023-03-30T11:03:27.415Z,15.55
2023-03-30T11:06:04.396Z,15.59
2023-03-30T11:08:38.031Z,15.56
2023-03-30T11:11:09.023Z,15.51
2023-03-30T11:13:41.169Z,15.62
2023-03-30T11:16:16.527Z,15.63
2023-03-30T11:18:53.443Z,15.73
2023-03-30T11:21:28.943Z,15.80
2023-03-30T11:24:01.107Z,15.82
2023-03-30T11:26:37.326Z,15.89
2023-03-30T11:29:18.716Z,15.87
2023-03-30T11:31:55.604Z,15.88
2023-03-30T11:34:32.832Z,15.89
2023-03-30T11:37:10.413Z,15.81
2023-03-30T11:39:42.888Z,15.87
2023-03-30T11:42:17.880Z,15.89
2023-03-30T11:44:46.422Z,15.95
2023-03-30T11:47:56.685Z,15.94
2023-03-30T11:50:45.770Z,15.94
2023-03-30T11:53:25.603Z,15.91
2023-03-30T11:56:07.136Z,15.92
2023-03-30T11:58:41.983Z,15.83
2023-03-30T12:01:32.926Z,15.79
2023-03-30T12:04:08.421Z,15.69
2023-03-30T12:06:41.468Z,15.63
2023-03-30T12:09:26.787Z,15.59
2023-03-30T12:12:02.531Z,15.55
2023-03-30T12:14:50.973Z,15.52
2023-03-30T12:17:33.482Z,15.46
2023-03-30T12:20:09.434Z,15.44
2023-03-30T12:22:42.550Z,15.45
2023-03-30T12:25:38.631Z,15.40
2023-03-30T12:28:14.293Z,15.40
2023-03-30T12:30:45.822Z,15.38
2023-03-30T12:33:18.645Z,15.30
2023-03-30T12:35:54.195Z,15.28
2023-03-30T12:38:25.802Z,15.22
2023-03-30T12:41:18.649Z,15.18
2023-03-30T12:44:15.960Z,15.16
2023-03-30T12:46:58.691Z,15.19
2023-03-30T12:49:37.230Z,15.21
2023-03-30T12:52:14.348Z,15.16
2023-03-30T12:55:08.005Z,15.15
2023-03-30T12:57:57.261Z,15.15
2023-03-30T13:01:04.989Z,15.19
2023-03-30T13:03:40.597Z,15.20
2023-03-30T13:06:17.033Z,15.16
2023-03-30T13:08:46.139Z,15.11
2023-03-30T13:11:18.018Z,15.11
2023-03-30T13:13:52.562Z,15.12
2023-03-30T13:17:03.318Z,15.11
2023-03-30T13:19:49.490Z,15.13
2023-03-30T13:22:29.317Z,15.16
2023-03-30T13:25:02.064Z,15.20
2023-03-30T13:27:34.283Z,15.22
2023-03-30T13:30:06.857Z,15.15
2023-03-30T13:32:50.158Z,15.15
2023-03-30T13:35:56.618Z,15.14
2023-03-30T13:38:48.848Z,15.11
2023-03-30T13:41:30.227Z,15.02
2023-03-30T13:44:09.482Z,15.03
2023-03-30T13:46:48.214Z,15.01
2023-03-30T13:49:41.542Z,15.01
2023-03-30T13:52:15.446Z,14.97
2023-03-30T13:54:45.325Z,14.92
2023-03-30T13:57:18.983Z,14.97
2023-03-30T13:59:53.915Z,14.96
2023-03-30T14:02:26.386Z,14.85
2023-03-30T14:04:55.262Z,15.04
2023-03-30T14:07:25.923Z,15.03
2023-03-30T14:10:06.617Z,15.00
2023-03-30T14:12:38.912Z,15.05
2023-03-30T14:15:19.409Z,15.03
2023-03-30T14:17:53.166Z,15.06
2023-03-30T14:20:31.527Z,15.07
2023-03-30T14:23:01.456Z,15.09
2023-03-30T14:25:33.529Z,15.09
2023-03-30T14:28:05.291Z,15.07
2023-03-30T14:30:35.091Z,15.09
2023-03-30T14:33:10.273Z,15.07
2023-03-30T14:35:43.531Z,15.04
2023-03-30T14:38:17.849Z,15.07
2023-03-30T14:40:48.195Z,15.04
2023-03-30T14:43:20.701Z,15.01
2023-03-30T14:45:50.723Z,15.03
2023-03-30T14:48:26.637Z,15.07
2023-03-30T14:50:55.181Z,15.05
2023-03-30T14:53:27.952Z,15.01
2023-03-30T14:55:58.433Z,15.01
2023-03-30T14:58:28.974Z,14.97
2023-03-30T15:00:59.321Z,14.94
2023-03-30T15:03:34.253Z,14.94
2023-03-30T15:06:04.988Z,14.90
2023-03-30T15:08:37.650Z,14.89
2023-03-30T15:11:10.967Z,14.82
2023-03-30T15:13:44.361Z,14.88
2023-03-30T15:16:20.794Z,14.90
2023-03-30T15:18:54.228Z,14.83
2023-03-30T15:21:25.697Z,14.84
2023-03-30T15:23:56.009Z,14.82
2023-03-30T15:26:27.358Z,14.85
2023-03-30T15:29:00.872Z,14.85
2023-03-30T15:31:30.170Z,14.86
2023-03-30T15:34:01.297Z,14.85
2023-03-30T15:36:39.294Z,14.76
2023-03-30T15:39:22.019Z,14.72
2023-03-30T15:42:00.988Z,14.70
2023-03-30T15:44:30.384Z,14.62
2023-03-30T15:47:00.271Z,14.64
2023-03-30T15:49:36.183Z,14.55
2023-03-30T15:52:14.395Z,14.60
2023-03-30T15:54:46.389Z,14.61
2023-03-30T15:57:21.063Z,14.56
2023-03-30T15:59:54.117Z,14.48
2023-03-30T16:02:25.223Z,14.52
2023-03-30T16:04:55.324Z,14.42
2023-03-30T16:07:26.032Z,14.44
2023-03-30T16:09:54.762Z,14.39
2023-03-30T16:12:27.405Z,14.32
2023-03-30T16:14:56.203Z,14.33
2023-03-30T16:17:25.141Z,14.26
2023-03-30T16:19:55.318Z,14.22
2023-03-30T16:22:23.848Z,14.24
2023-03-30T16:24:53.636Z,14.20
2023-03-30T16:27:22.213Z,14.15
2023-03-30T16:29:50.901Z,14.16
2023-03-30T16:32:19.530Z,14.14
2023-03-30T16:34:48.693Z,14.17
2023-03-30T16:37:18.604Z,14.20
2023-03-30T16:39:49.166Z,14.22
2023-03-30T16:42:17.686Z,14.28
2023-03-30T16:44:46.382Z,14.26
2023-03-30T16:47:15.724Z,14.32
2023-03-30T16:49:44.279Z,14.31
2023-03-30T16:52:12.797Z,14.28
2023-03-30T16:54:42.827Z,14.20
2023-03-30T16:57:12.110Z,14.25
2023-03-30T16:59:40.672Z,14.29
2023-03-30T17:02:16.311Z,14.32
2023-03-30T17:04:46.908Z,14.20
2023-03-30T17:07:15.399Z,14.14
2023-03-30T17:09:45.667Z,14.13
2023-03-30T17:12:14.154Z,14.07
2023-03-30T17:14:43.147Z,14.10
2023-03-30T17:17:12.735Z,14.12
2023-03-30T17:19:41.341Z,13.98
2023-03-30T17:22:09.864Z,14.11
2023-03-30T17:24:38.372Z,14.11
2023-03-30T17:27:08.319Z,14.15
2023-03-30T17:29:37.183Z,14.14
2023-03-30T17:32:07.765Z,14.16
2023-03-30T17:34:36.329Z,14.17
2023-03-30T17:37:04.920Z,14.10
2023-03-30T17:39:33.729Z,14.12
2023-03-30T17:42:02.308Z,14.06
2023-03-30T17:44:32.922Z,14.08
2023-03-30T17:47:02.044Z,14.05
2023-03-30T17:49:30.723Z,14.02
2023-03-30T17:51:59.448Z,13.98
2023-03-30T17:54:28.240Z,14.00
2023-03-30T17:56:56.775Z,13.95
2023-03-30T17:59:25.492Z,13.92
2023-03-30T18:01:55.933Z,13.94
2023-03-30T18:04:24.417Z,13.93
2023-03-30T18:06:53.048Z,13.93
2023-03-30T18:09:21.611Z,13.91
2023-03-30T18:11:50.392Z,13.91
2023-03-30T18:14:18.872Z,13.88
2023-03-30T18:16:50.084Z,13.88
2023-03-30T18:19:20.457Z,13.89
2023-03-30T18:21:49.114Z,13.89
2023-03-30T18:24:17.702Z,13.81
2023-03-30T18:26:46.525Z,13.96
2023-03-30T18:29:20.575Z,13.98
2023-03-30T18:31:49.894Z,13.98
2023-03-30T18:34:23.439Z,14.00
2023-03-30T18:36:52.142Z,14.06
2023-03-30T18:39:21.850Z,14.08
2023-03-30T18:41:52.783Z,14.10
2023-03-30T18:44:21.517Z,14.10
2023-03-30T18:46:52.838Z,14.08
2023-03-30T18:49:24.195Z,14.10
2023-03-30T18:51:53.714Z,14.10
2023-03-30T18:54:22.696Z,14.16
2023-03-30T18:56:51.943Z,14.16
2023-03-30T18:59:23.238Z,14.15
2023-03-30T19:01:54.827Z,14.14
2023-03-30T19:04:24.937Z,14.13
2023-03-30T19:06:54.240Z,14.18
2023-03-30T19:09:32.900Z,14.15
2023-03-30T19:12:14.972Z,14.10
2023-03-30T19:14:43.755Z,14.14
2023-03-30T19:17:16.219Z,14.14
2023-03-30T19:19:46.860Z,14.13
2023-03-30T19:22:15.545Z,14.15
2023-03-30T19:24:44.269Z,14.11
2023-03-30T19:27:13.178Z,14.05
2023-03-30T19:29:42.072Z,14.02
2023-03-30T19:32:12.262Z,13.98
2023-03-30T19:34:42.031Z,13.87
2023-03-30T19:37:14.785Z,13.83
2023-03-30T19:39:44.405Z,13.73
2023-03-30T19:42:14.479Z,13.63
2023-03-30T19:44:44.012Z,13.47
2023-03-30T19:47:12.796Z,13.16
2023-03-30T19:49:41.365Z,13.13
2023-03-30T19:52:10.062Z,13.04
2023-03-30T19:54:39.973Z,13.00
2023-03-30T19:57:09.066Z,12.98
2023-03-30T19:59:38.141Z,12.97
2023-03-30T20:02:07.244Z,12.88
2023-03-30T20:04:36.391Z,12.96
2023-03-30T20:07:05.589Z,13.06
2023-03-30T20:09:34.385Z,13.03
2023-03-30T20:12:04.720Z,13.04
2023-03-30T20:14:34.428Z,13.02
2023-03-30T20:17:03.433Z,12.90
2023-03-30T20:19:32.538Z,12.86
2023-03-30T20:22:01.131Z,12.86
2023-03-30T20:24:30.018Z,12.80
2023-03-30T20:26:59.238Z,12.76
2023-03-30T20:29:29.346Z,12.72
2023-03-30T20:31:58.223Z,12.58
2023-03-30T20:34:28.273Z,12.58
2023-03-30T20:36:57.411Z,12.52
2023-03-30T20:39:27.704Z,12.56
2023-03-30T20:41:58.533Z,12.57
2023-03-30T20:44:32.051Z,12.57
2023-03-30T20:47:01.950Z,12.50
2023-03-30T20:49:32.383Z,12.49
2023-03-30T20:52:02.194Z,12.53
2023-03-30T20:54:31.852Z,12.54
2023-03-30T20:57:00.764Z,12.43
2023-03-30T20:59:31.237Z,12.55
2023-03-30T21:02:00.436Z,12.48
2023-03-30T21:04:29.264Z,12.50
2023-03-30T21:06:57.927Z,12.45
2023-03-30T21:09:27.441Z,12.41
2023-03-30T21:11:56.326Z,12.40
2023-03-30T21:14:25.230Z,12.37
2023-03-30T21:16:55.417Z,12.30
2023-03-30T21:19:24.438Z,12.30
2023-03-30T21:21:53.950Z,12.30
2023-03-30T21:24:22.655Z,12.27
2023-03-30T21:26:51.224Z,12.17
2023-03-30T21:29:19.928Z,12.19
2023-03-30T21:31:49.750Z,12.04
2023-03-30T21:34:20.499Z,11.92
2023-03-30T21:36:49.334Z,11.94
2023-03-30T21:39:17.906Z,11.91
2023-03-30T21:41:46.472Z,11.82
2023-03-30T21:44:15.338Z,11.74
2023-03-30T21:46:44.170Z,11.65
2023-03-30T21:49:13.248Z,11.62
2023-03-30T21:51:43.261Z,11.58
2023-03-30T21:54:12.665Z,11.46
2023-03-30T21:56:41.268Z,11.49
2023-03-30T21:59:09.950Z,11.43
2023-03-30T22:01:39.061Z,11.42
2023-03-30T22:04:07.898Z,11.33
2023-03-30T22:06:36.740Z,11.26
2023-03-30T22:09:06.702Z,11.29
2023-03-30T22:11:35.302Z,11.25
2023-03-30T22:14:04.033Z,11.19
2023-03-30T22:16:35.275Z,11.19
2023-03-30T22:19:04.444Z,11.16
2023-03-30T22:21:35.929Z,11.16
2023-03-30T22:24:08.213Z,11.11
2023-03-30T22:26:37.176Z,11.07
2023-03-30T22:29:06.460Z,11.03
2023-03-30T22:31:35.999Z,11.04
2023-03-30T22:34:04.622Z,10.99
2023-03-30T22:36:33.414Z,10.95
2023-03-30T22:39:06.992Z,10.90
2023-03-30T22:41:36.932Z,10.88
2023-03-30T22:44:05.793Z,10.84
2023-03-30T22:46:34.428Z,10.79
2023-03-30T22:49:03.945Z,10.83
2023-03-30T22:51:34.253Z,10.78
2023-03-30T22:54:02.752Z,10.79
2023-03-30T22:56:32.048Z,10.78
2023-03-30T22:59:02.381Z,10.71
2023-03-30T23:01:32.585Z,10.70
2023-03-30T23:04:02.117Z,10.69
2023-03-30T23:06:31.576Z,10.66
2023-03-30T23:09:01.745Z,10.64
2023-03-30T23:11:31.013Z,10.57
2023-03-30T23:14:06.185Z,10.53
2023-03-30T23:16:37.897Z,10.52
2023-03-30T23:19:07.257Z,10.49
2023-03-30T23:21:36.203Z,10.36
2023-03-30T23:24:06.902Z,10.45
2023-03-30T23:26:36.148Z,10.40
2023-03-30T23:29:05.801Z,10.36
2023-03-30T23:31:36.044Z,10.37
2023-03-30T23:34:04.646Z,10.35
2023-03-30T23:36:33.207Z,10.30
2023-03-30T23:39:01.778Z,10.31
2023-03-30T23:41:30.406Z,10.31
2023-03-30T23:43:59.043Z,10.33
2023-03-30T23:46:27.690Z,10.33
2023-03-30T23:48:57.707Z,10.29
2023-03-30T23:51:26.650Z,10.35
2023-03-30T23:53:56.963Z,10.40
2023-03-30T23:56:27.878Z,10.37
2023-03-30T23:58:56.998Z,10.39
